Friendship, Indiana
Current Conditions -  °F | °C
As of 5:12 AM on Sunday 25 Jan 2015 (Local Time) from KIMS Reporting Station
Scattered Clouds Scattered Clouds  
Wind Chill: 32°   Ceiling: Unl
Heat Index: 36°   Visibility: 10mi
Dew Point: 30°   Wind: 5mph
Humidity: 81%   Direction: 170°S
Pressure: 29.75"   Gusts: NA
Location:  38.97°N, 85.15°W
Report Text: KIMS 251012Z AUTO 17004KT 10SM SCT120 02/M01 A2975 RMK AO1
Loading
Personal Weather Stations






























Interactive Weather Map New forecast layout! Learn more

10-Day Weather Forecast

Advertisements
Track Severe Weather on mobile